Time;durP1;ratioP1;P1;durP2;ratioP2;P2;SDS_P1;SDS_P2;PMS_P1;PMS_P2;Temp;Humidity;BMP_temperature;BMP_pressure;BME280_temperature;BME280_humidity;BME280_pressure;Samples;Min_cycle;Max_cycle;Signal;HPM_P1;HPM_P2
2022/10/26 00:01:21;;;;;;;;;11.00;8.00;;;;;12.39;100.00;100079.13;6268787;20;2763900;-68
2022/10/26 00:03:50;;;;;;;;;12.00;10.00;;;;;12.32;100.00;100082.31;6296731;20;2784649;-68
2022/10/26 00:06:24;;;;;;;;;10.50;10.50;;;;;12.25;100.00;100084.53;6297505;20;2794130;-69
2022/10/26 00:08:52;;;;;;;;;8.50;8.50;;;;;12.21;100.00;100083.84;6273264;20;2743067;-69
2022/10/26 00:11:20;;;;;;;;;10.00;8.50;;;;;12.21;100.00;100085.66;6269225;20;2762780;-69
2022/10/26 00:13:50;;;;;;;;;11.80;8.60;;;;;12.15;100.00;100075.28;6294835;20;2773278;-68
2022/10/26 00:16:26;;;;;;;;;10.00;10.00;;;;;12.22;100.00;100092.81;6268262;20;2779480;-68
2022/10/26 00:18:54;;;;;;;;;10.00;9.00;;;;;12.02;100.00;100081.41;6270865;20;2778405;-68
2022/10/26 00:21:23;;;;;;;;;12.00;10.67;;;;;12.05;100.00;100086.59;6269539;20;2788940;-68
2022/10/26 00:23:52;;;;;;;;;15.40;9.60;;;;;11.95;100.00;100085.44;6327287;20;2806504;-68
2022/10/26 00:26:20;;;;;;;;;11.00;11.00;;;;;11.90;100.00;100082.19;6275365;20;2790922;-70
2022/10/26 00:28:54;;;;;;;;;14.00;11.00;;;;;11.95;100.00;100080.03;6293662;20;2791923;-68
2022/10/26 00:31:23;;;;;;;;;9.00;9.00;;;;;11.88;100.00;100073.34;6269255;20;2745187;-68
2022/10/26 00:33:55;;;;;;;;;13.00;11.50;;;;;11.97;100.00;100078.13;6300830;20;2787815;-67
2022/10/26 00:36:25;;;;;;;;;11.00;9.50;;;;;12.01;100.00;100074.31;6265239;20;2781692;-68
2022/10/26 00:38:56;;;;;;;;;12.33;8.67;;;;;12.12;100.00;100076.34;6268663;20;2775317;-68
2022/10/26 00:41:30;;;;;;;;;6.00;5.50;;;;;12.07;100.00;100068.53;6301443;20;2740959;-68
2022/10/26 00:44:45;;;;;;;;;9.14;8.57;;;;;11.71;100.00;100066.22;6313237;20;1796156;-68
2022/10/26 00:47:32;;;;;;;;;11.50;9.00;;;;;11.37;100.00;100056.63;6305444;20;2778514;-68
2022/10/26 00:50:21;;;;;;;;;13.00;13.00;;;;;10.98;100.00;100052.63;6276164;20;2779429;-68
2022/10/26 00:52:52;;;;;;;;;11.00;10.33;;;;;10.81;100.00;100052.72;6267857;20;2791989;-68
2022/10/26 00:55:30;;;;;;;;;9.60;8.20;;;;;10.70;100.00;100046.13;6326944;20;2763893;-68
2022/10/26 00:58:02;;;;;;;;;8.40;8.40;;;;;10.72;100.00;100046.91;6291054;20;2747124;-67
2022/10/26 01:00:30;;;;;;;;;9.50;8.00;;;;;10.71;100.00;100041.63;6301210;20;2758715;-67
2022/10/26 01:03:05;;;;;;;;;6.00;6.00;;;;;10.75;100.00;100036.00;6273320;20;2737821;-68
2022/10/26 01:05:39;;;;;;;;;7.00;7.00;;;;;10.86;100.00;100037.19;6271448;20;2731546;-68
2022/10/26 01:08:11;;;;;;;;;13.86;8.29;;;;;10.48;100.00;100037.56;6308881;20;1806672;-68
2022/10/26 01:10:42;;;;;;;;;30.33;26.00;;;;;10.58;100.00;100052.16;6298866;20;2857566;-68
2022/10/26 01:13:12;;;;;;;;;15.00;13.00;;;;;10.71;100.00;100041.63;6300221;20;2489860;-68
2022/10/26 01:16:32;;;;;;;;;13.00;13.00;;;;;10.65;100.00;100045.50;6268358;20;2791918;-67
2022/10/26 01:19:27;;;;;;;;;11.00;11.00;;;;;10.64;100.00;100051.84;6301960;20;2784606;-67
2022/10/26 01:22:10;;;;;;;;;9.00;7.50;;;;;10.61;100.00;100057.41;6310219;20;2733469;-68
2022/10/26 01:25:03;;;;;;;;;13.60;9.00;;;;;10.56;100.00;100054.09;6300477;20;2775304;-68
2022/10/26 01:27:45;;;;;;;;;12.67;12.33;;;;;10.33;100.00;100052.69;6271619;20;2791950;-68
2022/10/26 01:30:44;;;;;;;;;12.00;10.00;;;;;9.93;100.00;100056.63;6327895;20;2785779;-68
2022/10/26 01:33:43;;;;;;;;;10.60;10.00;;;;;9.78;100.00;100056.47;6297278;20;2788962;-68
2022/10/26 01:37:08;;;;;;;;;9.00;9.00;;;;;9.43;100.00;100056.47;6275424;20;2750374;-67
2022/10/26 01:39:48;;;;;;;;;10.00;10.00;;;;;9.39;100.00;100054.88;6270700;20;2778467;-69
2022/10/26 01:42:18;;;;;;;;;11.00;9.00;;;;;9.38;100.00;100053.16;6302070;20;2748299;-67
2022/10/26 01:44:55;;;;;;;;;10.00;10.00;;;;;9.38;100.00;100063.00;6273362;20;2795179;-68
2022/10/26 01:47:25;;;;;;;;;13.00;10.67;;;;;9.27;100.00;100055.53;6270095;20;2789878;-68
2022/10/26 01:49:59;;;;;;;;;9.00;9.00;;;;;9.52;100.00;100062.31;6302812;20;2771179;-68
2022/10/26 01:52:27;;;;;;;;;4.50;4.50;;;;;9.39;100.00;100060.25;6275005;20;2746172;-67
2022/10/26 01:55:37;;;;;;;;;11.00;8.00;;;;;9.50;100.00;100061.50;6273581;20;2775261;-68
2022/10/26 01:58:55;;;;;;;;;8.50;8.50;;;;;9.60;100.00;100046.69;6279501;20;2748285;-68
2022/10/26 02:02:15;;;;;;;;;7.00;7.00;;;;;9.42;100.00;100056.53;6271831;20;2737805;-67
2022/10/26 02:05:41;;;;;;;;;10.57;9.00;;;;;9.35;100.00;100064.03;6314894;20;1813336;-67
2022/10/26 02:08:42;;;;;;;;;11.50;11.00;;;;;9.24;100.00;100058.31;6305066;20;2786927;-68
2022/10/26 02:11:45;;;;;;;;;10.50;10.50;;;;;9.14;100.00;100057.06;6272411;20;2790025;-68
2022/10/26 02:14:42;;;;;;;;;17.00;12.00;;;;;8.99;100.00;100050.66;6297354;20;2680490;-68
2022/10/26 02:17:43;;;;;;;;;14.00;11.00;;;;;8.86;100.00;100060.22;6304523;20;2793084;-68
2022/10/26 02:20:32;;;;;;;;;18.33;12.33;;;;;9.06;100.00;100056.56;6272350;20;2802435;-67
2022/10/26 02:23:06;;;;;;;;;14.00;12.00;;;;;8.87;100.00;100057.47;6308099;20;2813817;-67
2022/10/26 02:25:43;;;;;;;;;12.00;12.00;;;;;8.88;100.00;100053.00;6273820;20;2791976;-67
2022/10/26 02:28:19;;;;;;;;;15.00;12.50;;;;;8.91;100.00;100051.03;6277130;20;2794025;-68
2022/10/26 02:30:51;;;;;;;;;15.33;11.00;;;;;8.94;100.00;100053.56;6270511;20;2794190;-67
2022/10/26 02:33:22;;;;;;;;;13.20;11.80;;;;;8.75;100.00;100061.63;6326089;20;2816970;-67
2022/10/26 02:35:53;;;;;;;;;13.00;12.00;;;;;8.89;100.00;100068.97;6272916;20;2802327;-69
2022/10/26 02:38:23;;;;;;;;;14.00;14.00;;;;;8.82;100.00;100070.25;6274666;20;2812810;-67
2022/10/26 02:40:54;;;;;;;;;15.67;14.33;;;;;8.57;100.00;100068.72;6270089;20;3552342;-68
2022/10/26 02:43:24;;;;;;;;;15.00;14.00;;;;;8.56;100.00;100072.34;6300631;20;3536724;-67
2022/10/26 02:46:06;;;;;;;;;19.00;19.00;;;;;8.72;100.00;100074.28;6300797;20;2829544;-67
2022/10/26 02:48:37;;;;;;;;;14.00;13.00;;;;;8.49;100.00;100081.59;6272517;20;3536745;-67
2022/10/26 02:51:24;;;;;;;;;21.00;16.50;;;;;8.39;100.00;100082.94;6301246;20;2829692;-67
2022/10/26 02:54:13;;;;;;;;;18.33;16.67;;;;;8.52;100.00;100089.47;6269661;20;3558592;-68
2022/10/26 02:57:31;;;;;;;;;24.00;15.33;;;;;8.12;100.00;100091.25;6268010;20;3596115;-67
2022/10/26 03:00:01;;;;;;;;;18.00;16.33;;;;;8.15;100.00;100090.25;6267948;20;3551406;-68
2022/10/26 03:02:29;;;;;;;;;16.00;12.67;;;;;8.34;100.00;100084.94;6270909;20;3533738;-67
2022/10/26 03:05:18;;;;;;;;;19.00;16.00;;;;;8.22;100.00;100093.53;6299464;20;2496143;-68
2022/10/26 03:07:46;;;;;;;;;17.50;14.50;;;;;8.05;100.00;100094.28;6272109;20;2806533;-67
2022/10/26 03:10:14;;;;;;;;;17.00;15.00;;;;;8.14;100.00;100088.53;6274123;20;2815923;-68
2022/10/26 03:12:43;;;;;;;;;15.67;15.33;;;;;8.14;100.00;100089.41;6267269;20;3555596;-67
2022/10/26 03:15:11;;;;;;;;;21.50;17.00;;;;;8.22;100.00;100104.25;6270121;20;2822192;-67
2022/10/26 03:17:39;;;;;;;;;16.67;15.67;;;;;8.14;100.00;100109.94;6271377;20;3569043;-67
2022/10/26 03:20:10;;;;;;;;;20.00;19.00;;;;;8.21;100.00;100113.19;6270175;20;2826397;-66
2022/10/26 03:22:38;;;;;;;;;22.33;16.00;;;;;8.09;100.00;100111.94;6267686;20;3547164;-67
2022/10/26 03:25:07;;;;;;;;;19.50;19.50;;;;;7.99;100.00;100110.59;6269611;20;2496235;-67
2022/10/26 03:28:03;;;;;;;;;23.50;19.00;;;;;7.95;100.00;100109.84;6269630;20;2500265;-68
2022/10/26 03:30:32;;;;;;;;;20.50;15.00;;;;;8.01;100.00;100101.56;6269185;20;2500423;-68
2022/10/26 03:33:00;;;;;;;;;20.50;20.00;;;;;8.21;100.00;100121.19;6267695;20;2500261;-67
2022/10/26 03:35:28;;;;;;;;;42.50;35.50;;;;;8.14;100.00;100118.81;6269920;20;2846145;-67
2022/10/26 03:37:58;;;;;;;;;40.00;35.33;;;;;7.97;100.00;100123.16;6270861;20;2872197;-67
2022/10/26 03:40:26;;;;;;;;;50.33;38.00;;;;;7.87;100.00;100125.34;6303825;20;3589960;-67
2022/10/26 03:42:56;;;;;;;;;32.67;26.00;;;;;7.96;100.00;100116.09;6269833;20;2850233;-68
2022/10/26 03:45:25;;;;;;;;;39.00;32.00;;;;;7.88;100.00;100130.66;6302695;20;3620016;-68
2022/10/26 03:47:53;;;;;;;;;33.33;31.67;;;;;7.67;100.00;100132.44;6271666;20;3599259;-67
2022/10/26 03:50:22;;;;;;;;;32.50;24.50;;;;;8.06;100.00;100129.00;6265301;20;2858762;-68
2022/10/26 03:52:50;;;;;;;;;25.50;24.00;;;;;8.22;100.00;100129.19;6269072;20;2500564;-67
2022/10/26 03:55:19;;;;;;;;;30.00;23.00;;;;;8.00;100.00;100126.56;6269172;20;2850376;-67
2022/10/26 03:57:48;;;;;;;;;27.50;21.50;;;;;7.84;100.00;100129.03;6270531;20;2848834;-68
2022/10/26 04:00:18;;;;;;;;;29.67;25.33;;;;;7.85;100.00;100127.25;6268151;20;2854652;-67
2022/10/26 04:02:56;;;;;;;;;23.50;21.50;;;;;7.96;100.00;100137.47;6299123;20;2838838;-67
2022/10/26 04:05:28;;;;;;;;;27.50;25.00;;;;;8.18;100.00;100132.91;6267762;20;2844010;-68
2022/10/26 04:08:01;;;;;;;;;20.00;20.00;;;;;8.00;100.00;100129.22;6267104;20;2844063;-68
2022/10/26 04:10:31;;;;;;;;;25.50;25.50;;;;;8.26;100.00;100129.88;6270995;20;2845104;-67
2022/10/26 04:13:00;;;;;;;;;27.00;24.50;;;;;8.21;100.00;100150.63;6269991;20;2843996;-67
2022/10/26 04:15:29;;;;;;;;;26.00;25.50;;;;;8.00;100.00;100145.28;6265434;20;2849514;-68
2022/10/26 04:18:01;;;;;;;;;27.50;26.50;;;;;7.94;100.00;100142.88;6270154;20;2856710;-68
2022/10/26 04:20:32;;;;;;;;;28.00;25.00;;;;;7.80;100.00;100131.94;6267410;20;2849414;-67
2022/10/26 04:23:04;;;;;;;;;27.00;24.50;;;;;7.81;100.00;100134.53;6270992;20;2845156;-67
2022/10/26 04:25:33;;;;;;;;;25.50;24.50;;;;;7.70;100.00;100132.31;6269213;20;2849343;-68
2022/10/26 04:28:06;;;;;;;;;38.33;33.67;;;;;7.84;100.00;100144.22;6270762;20;3620100;-67
2022/10/26 04:30:36;;;;;;;;;39.00;31.33;;;;;7.70;100.00;100148.34;6300654;20;3631530;-67
2022/10/26 04:33:06;;;;;;;;;30.00;29.67;;;;;7.88;100.00;100152.03;6300049;20;3592078;-68
2022/10/26 04:35:35;;;;;;;;;41.67;34.00;;;;;7.44;100.00;100140.56;6264216;20;3613786;-68
2022/10/26 04:38:06;;;;;;;;;66.33;49.00;;;;;7.59;100.00;100137.25;6298281;20;3640888;-67
2022/10/26 04:40:37;;;;;;;;;58.33;43.00;;;;;7.72;100.00;100147.44;6298831;20;3620241;-67
2022/10/26 04:43:06;;;;;;;;;54.67;44.00;;;;;7.52;100.00;100149.13;6299986;20;2870142;-69
2022/10/26 04:45:35;;;;;;;;;54.00;41.33;;;;;7.47;100.00;100151.09;6298783;20;2871403;-68
2022/10/26 04:48:10;;;;;;;;;38.00;34.50;;;;;7.55;100.00;100161.47;6302025;20;2839925;-68
2022/10/26 04:50:40;;;;;;;;;48.00;37.00;;;;;7.47;100.00;100151.09;6269256;20;2745117;-67
2022/10/26 04:53:10;;;;;;;;;40.00;34.33;;;;;7.42;100.00;100151.28;6302034;20;3618049;-68
2022/10/26 04:55:38;;;;;;;;;37.33;34.67;;;;;7.36;100.00;100158.69;6303614;20;3614894;-68
2022/10/26 04:58:07;;;;;;;;;42.00;35.00;;;;;7.35;100.00;100162.31;6273716;20;2851495;-68
2022/10/26 05:00:37;;;;;;;;;45.00;35.00;;;;;7.41;100.00;100148.69;6270701;20;3627537;-67
2022/10/26 05:03:06;;;;;;;;;30.33;28.33;;;;;7.49;100.00;100149.25;6309974;20;3591988;-67
2022/10/26 05:05:36;;;;;;;;;42.50;35.50;;;;;7.65;100.00;100153.00;6272667;20;2861854;-67
2022/10/26 05:08:06;;;;;;;;;41.33;35.67;;;;;7.58;100.00;100143.53;6273528;20;2881668;-67
2022/10/26 05:10:35;;;;;;;;;40.00;34.67;;;;;7.42;100.00;100147.75;6307352;20;3596229;-68
2022/10/26 05:13:05;;;;;;;;;41.33;36.00;;;;;7.58;100.00;100151.56;6273069;20;2855786;-67
2022/10/26 05:15:33;;;;;;;;;37.67;33.00;;;;;7.62;100.00;100137.13;6305202;20;3599350;-68
2022/10/26 05:18:05;;;;;;;;;38.00;30.67;;;;;7.53;100.00;100150.88;6273719;20;2859718;-67
2022/10/26 05:20:35;;;;;;;;;43.00;34.67;;;;;7.49;100.00;100149.25;6308238;20;3615869;-66
2022/10/26 05:23:09;;;;;;;;;47.33;32.00;;;;;7.50;100.00;100159.00;6272190;20;3647133;-67
2022/10/26 05:25:38;;;;;;;;;41.00;34.33;;;;;7.80;100.00;100153.31;6304953;20;3614849;-66
2022/10/26 05:28:14;;;;;;;;;33.00;32.33;;;;;7.61;100.00;100155.88;6273157;20;3600250;-68
2022/10/26 05:30:45;;;;;;;;;34.67;32.00;;;;;7.43;100.00;100152.19;6305310;20;3606530;-68
2022/10/26 05:33:15;;;;;;;;;47.67;39.00;;;;;7.35;100.00;100143.63;6271200;20;2869036;-68
2022/10/26 05:35:43;;;;;;;;;43.67;35.00;;;;;7.52;100.00;100153.59;6307972;20;3594034;-67
2022/10/26 05:38:16;;;;;;;;;53.00;40.00;;;;;7.31;100.00;100150.00;6272163;20;2875497;-68
2022/10/26 05:40:52;;;;;;;;;45.00;34.67;;;;;7.11;100.00;100156.13;6302810;20;3625414;-67
2022/10/26 05:43:23;;;;;;;;;46.67;37.33;;;;;7.13;100.00;100152.47;6301857;20;2866068;-68
2022/10/26 05:45:53;;;;;;;;;56.33;41.00;;;;;7.20;100.00;100159.31;6298540;20;3625281;-67
2022/10/26 05:48:23;;;;;;;;;55.00;41.00;;;;;7.16;100.00;100155.06;6302676;20;2860781;-67
2022/10/26 05:50:52;;;;;;;;;49.67;38.33;;;;;7.18;100.00;100163.84;6309145;20;3633730;-67
2022/10/26 05:53:20;;;;;;;;;54.00;42.67;;;;;7.03;100.00;100157.34;6275535;20;3604432;-67
2022/10/26 05:55:50;;;;;;;;;53.00;42.00;;;;;7.15;100.00;100155.97;6269717;20;2865776;-67
2022/10/26 05:58:20;;;;;;;;;44.67;37.67;;;;;7.55;100.00;100170.34;6303024;20;2870331;-67
2022/10/26 06:01:30;;;;;;;;;67.00;47.50;;;;;7.19;100.00;100168.28;6302143;20;3531716;-66
2022/10/26 06:04:46;;;;;;;;;68.33;50.67;;;;;7.78;100.00;100168.53;6301173;20;3639989;-68
2022/10/26 06:07:21;;;;;;;;;72.33;54.00;;;;;7.85;100.00;100170.03;6301960;20;3639841;-68
2022/10/26 06:09:51;;;;;;;;;71.00;54.00;;;;;7.96;100.00;100161.53;6270604;20;3637866;-66
2022/10/26 06:12:22;;;;;;;;;90.00;73.33;;;;;8.06;100.00;100174.44;6292627;20;3680517;-67
2022/10/26 06:14:51;;;;;;;;;38.00;16.67;;;;;8.12;100.00;100182.19;6268436;20;3589863;-67
2022/10/26 06:18:12;;;;;;;;;115.75;99.50;;;;;8.10;100.00;100177.84;6271688;20;4474227;-67
2022/10/26 06:21:14;;;;;;;;;83.25;59.75;;;;;8.58;100.00;100184.66;6268686;20;3653575;-68
2022/10/26 06:24:11;;;;;;;;;69.67;51.33;;;;;9.02;100.00;100187.09;6304700;20;3647156;-67
2022/10/26 06:27:01;;;;;;;;;34.50;30.00;;;;;9.38;100.00;100189.84;6267516;20;2844061;-68
2022/10/26 06:30:03;;;;;;;;;39.00;34.67;;;;;9.71;100.00;100191.78;6269527;20;3601351;-67
2022/10/26 06:32:33;;;;;;;;;56.00;42.00;;;;;11.04;100.00;100183.94;6304483;20;3627373;-67
2022/10/26 06:35:33;;;;;;;;;60.33;46.67;;;;;12.99;93.57;100211.91;6269260;20;3627505;-69
2022/10/26 06:38:11;;;;;;;;;63.67;50.67;;;;;15.96;77.86;100215.69;6304293;20;3621160;-68
2022/10/26 06:40:42;;;;;;;;;108.50;99.00;;;;;17.43;72.57;100215.97;6299501;20;1936924;-69
2022/10/26 06:43:30;;;;;;;;;47.50;39.50;;;;;16.44;74.37;100221.03;6268289;20;2856789;-68
2022/10/26 06:46:23;;;;;;;;;26.33;19.67;;;;;17.38;70.77;100229.03;6271534;20;3584786;-69
2022/10/26 06:49:15;;;;;;;;;22.50;21.50;;;;;16.61;71.46;100230.59;6273946;20;2833772;-69
2022/10/26 06:52:00;;;;;;;;;25.33;20.67;;;;;17.78;69.95;100232.94;6270894;20;2847148;-68
2022/10/26 06:54:51;;;;;;;;;30.00;21.00;;;;;20.36;60.38;100242.09;6302825;20;3591981;-68
2022/10/26 06:57:28;;;;;;;;;23.33;22.33;;;;;20.81;56.75;100247.81;6271506;20;3585729;-68
2022/10/26 07:00:14;;;;;;;;;20.50;20.00;;;;;20.61;57.45;100252.41;6265604;20;2842063;-67
2022/10/26 07:02:42;;;;;;;;;20.67;18.33;;;;;17.20;67.24;100256.72;6278210;20;3564886;-69
2022/10/26 07:05:11;;;;;;;;;21.33;19.00;;;;;19.44;62.11;100251.34;6304477;20;3569147;-68
2022/10/26 07:07:46;;;;;;;;;19.00;17.00;;;;;16.13;73.17;100240.63;6267242;20;2839965;-67
2022/10/26 07:10:16;;;;;;;;;25.67;20.67;;;;;14.33;81.23;100237.28;6297452;20;2843110;-68
2022/10/26 07:12:45;;;;;;;;;27.33;23.33;;;;;13.43;88.85;100241.47;6298728;20;3588832;-69
2022/10/26 07:15:14;;;;;;;;;27.33;26.33;;;;;13.50;89.98;100236.53;6268494;20;3591971;-67
2022/10/26 07:17:48;;;;;;;;;39.25;31.63;;;;;13.26;90.92;100236.25;6318904;20;3616978;-69
2022/10/26 07:20:21;;;;;;;;;25.75;24.63;;;;;13.74;88.43;100242.16;6289608;20;3597679;-68
2022/10/26 07:22:55;;;;;;;;;24.67;24.33;;;;;13.64;90.12;100244.59;6269845;20;3596288;-67
2022/10/26 07:25:27;;;;;;;;;30.33;27.33;;;;;13.93;89.52;100250.78;6301324;20;3580468;-69
2022/10/26 07:27:58;;;;;;;;;46.67;35.67;;;;;13.60;92.54;100243.06;6267288;20;2856522;-69
2022/10/26 07:30:33;;;;;;;;;46.67;36.00;;;;;14.00;90.96;100246.69;6300764;20;3613827;-69
2022/10/26 07:33:07;;;;;;;;;34.67;32.00;;;;;14.51;90.20;100240.56;6273796;20;3609670;-68
2022/10/26 07:35:35;;;;;;;;;29.33;28.00;;;;;14.45;89.82;100239.13;6275248;20;3587760;-69
2022/10/26 07:38:08;;;;;;;;;33.88;30.13;;;;;14.33;90.93;100247.22;6292029;20;3612867;-69
2022/10/26 07:40:40;;;;;;;;;37.67;30.00;;;;;14.55;91.31;100244.81;6273301;20;3607536;-69
2022/10/26 07:43:08;;;;;;;;;31.50;29.50;;;;;14.41;91.54;100234.06;6274782;20;2840916;-68
2022/10/26 07:45:39;;;;;;;;;44.33;37.67;;;;;14.47;91.75;100241.72;6270052;20;2860282;-69
2022/10/26 07:48:07;;;;;;;;;28.00;26.00;;;;;14.85;90.53;100240.91;6306827;20;3596099;-68
2022/10/26 07:50:37;;;;;;;;;27.67;26.00;;;;;14.91;91.40;100241.38;6273668;20;2859720;-68
2022/10/26 07:53:05;;;;;;;;;47.67;39.33;;;;;14.99;91.35;100238.13;6308608;20;3579420;-68
2022/10/26 07:55:35;;;;;;;;;26.67;21.67;;;;;15.20;90.58;100237.56;6265477;20;2854661;-68
2022/10/26 07:58:04;;;;;;;;;34.33;29.33;;;;;15.14;91.23;100237.03;6304215;20;3582575;-70
2022/10/26 08:00:32;;;;;;;;;32.33;29.67;;;;;15.46;91.36;100241.09;6272424;20;3581564;-69
2022/10/26 08:03:01;;;;;;;;;27.00;24.67;;;;;15.54;90.26;100241.38;6274873;20;3591958;-68
2022/10/26 08:05:32;;;;;;;;;63.50;51.00;;;;;15.76;89.88;100249.66;6273725;20;3500287;-68
2022/10/26 08:08:04;;;;;;;;;52.00;42.00;;;;;15.94;89.43;100249.28;6301424;20;2850505;-68
2022/10/26 08:10:34;;;;;;;;;37.25;29.25;;;;;16.35;89.00;100251.59;6304972;20;3621177;-68
2022/10/26 08:13:02;;;;;;;;;26.00;22.67;;;;;16.66;86.77;100250.03;6309081;20;3577388;-69
2022/10/26 08:15:33;;;;;;;;;25.00;20.00;;;;;16.30;87.47;100251.06;6271446;20;2834099;-69
2022/10/26 08:18:01;;;;;;;;;19.50;18.00;;;;;16.68;85.67;100249.94;6268284;20;2487818;-68
2022/10/26 08:20:33;;;;;;;;;26.67;23.00;;;;;16.59;86.75;100247.97;6270761;20;3577580;-70
2022/10/26 08:23:05;;;;;;;;;26.50;21.50;;;;;16.35;86.30;100251.59;6270430;20;2840886;-67
2022/10/26 08:25:34;;;;;;;;;26.33;24.00;;;;;16.77;87.12;100242.94;6265214;20;3595075;-68
2022/10/26 08:28:04;;;;;;;;;28.00;23.67;;;;;16.70;87.54;100247.97;6267523;20;2848278;-69
2022/10/26 08:30:36;;;;;;;;;16.33;16.33;;;;;16.74;88.34;100235.91;6308485;20;3566985;-69
2022/10/26 08:33:08;;;;;;;;;20.67;20.33;;;;;16.81;88.32;100248.03;6270746;20;3575268;-69
2022/10/26 08:35:37;;;;;;;;;23.33;20.00;;;;;16.61;90.32;100243.25;6270132;20;3571087;-68
2022/10/26 08:38:06;;;;;;;;;22.00;19.00;;;;;17.09;88.54;100246.72;6268549;20;2841948;-68
2022/10/26 08:40:42;;;;;;;;;20.33;18.33;;;;;17.07;88.04;100242.41;6271292;20;2837776;-66
2022/10/26 08:43:58;;;;;;;;;18.00;16.33;;;;;16.91;89.02;100241.91;6301639;20;3558581;-66
2022/10/26 08:46:40;;;;;;;;;14.33;14.33;;;;;17.28;87.77;100237.94;6271244;20;3539887;-68
2022/10/26 08:49:31;;;;;;;;;16.50;16.50;;;;;17.66;86.90;100246.66;6301142;20;2827387;-67
2022/10/26 08:52:02;;;;;;;;;20.50;19.00;;;;;17.62;87.23;100246.06;6269751;20;2841930;-66
2022/10/26 08:54:50;;;;;;;;;12.67;11.67;;;;;17.78;86.10;100246.53;6270529;20;3515924;-67
2022/10/26 08:57:29;;;;;;;;;9.00;9.00;;;;;18.09;86.15;100248.56;6306311;20;2743005;-67
2022/10/26 09:00:10;;;;;;;;;13.00;10.00;;;;;17.86;86.65;100239.63;6274512;20;2789917;-66
2022/10/26 09:02:37;;;;;;;;;18.00;12.00;;;;;18.26;85.79;100236.28;6274414;20;2798224;-67
2022/10/26 09:05:35;;;;;;;;;13.00;11.67;;;;;18.26;84.94;100247.16;6276994;20;2802340;-65
2022/10/26 09:08:54;;;;;;;;;14.00;10.67;;;;;18.01;85.59;100249.22;6304961;20;2792090;-68
2022/10/26 09:11:56;;;;;;;;;14.67;11.67;;;;;18.43;86.63;100254.72;6295554;20;3518030;-68
2022/10/26 09:14:52;;;;;;;;;12.00;10.00;;;;;18.61;83.99;100249.56;6295996;20;2784756;-67
2022/10/26 09:17:34;;;;;;;;;10.60;5.80;;;;;18.47;82.83;100255.34;6324100;20;2750319;-67
2022/10/26 09:20:39;;;;;;;;;9.00;9.00;;;;;18.49;84.02;100248.78;6271270;20;3469054;-67
2022/10/26 09:23:47;;;;;;;;;5.20;5.20;;;;;18.56;82.02;100249.09;6325917;20;2727813;-68
2022/10/26 09:26:37;;;;;;;;;11.33;8.67;;;;;18.54;82.69;100251.97;6301372;20;2770146;-68
2022/10/26 09:29:15;;;;;;;;;8.20;7.00;;;;;18.73;82.71;100261.25;6328924;20;2734672;-68
2022/10/26 09:31:49;;;;;;;;;4.33;4.33;;;;;18.88;81.36;100251.81;6300728;20;2754500;-67
2022/10/26 09:34:52;;;;;;;;;6.00;6.00;;;;;18.67;80.77;100265.38;6301843;20;2748225;-67
2022/10/26 09:37:33;;;;;;;;;7.80;6.60;;;;;19.07;79.88;100261.94;6324342;20;2734778;-68
2022/10/26 09:40:19;;;;;;;;;5.33;5.33;;;;;19.40;79.06;100265.38;6305798;20;2750309;-68
2022/10/26 09:43:17;;;;;;;;;6.60;5.20;;;;;19.44;79.08;100267.69;6331941;20;2749458;-68
2022/10/26 09:45:51;;;;;;;;;8.00;7.00;;;;;18.64;83.13;100269.22;6275636;20;2746096;-67
2022/10/26 09:48:35;;;;;;;;;7.80;7.80;;;;;19.37;80.73;100268.38;6331358;20;2738851;-67
2022/10/26 09:51:05;;;;;;;;;6.40;6.40;;;;;18.67;82.30;100267.22;6331057;20;2737750;-68
2022/10/26 09:53:33;;;;;;;;;8.33;7.67;;;;;18.66;83.07;100271.78;6302779;20;2732738;-68
2022/10/26 09:56:13;;;;;;;;;8.60;7.40;;;;;18.56;83.54;100271.75;6333401;20;2734700;-66
2022/10/26 09:58:58;;;;;;;;;9.67;9.67;;;;;19.17;82.18;100270.13;6304037;20;2773185;-70
2022/10/26 10:01:34;;;;;;;;;7.60;7.60;;;;;18.88;82.47;100273.56;6328544;20;2737911;-70
2022/10/26 10:04:21;;;;;;;;;9.00;8.00;;;;;18.65;84.43;100270.94;6304660;20;2739860;-71
2022/10/26 10:07:13;;;;;;;;;12.00;12.00;;;;;18.88;82.29;100273.56;6311375;20;2805581;-70
2022/10/26 10:09:41;;;;;;;;;11.67;11.67;;;;;19.48;81.49;100269.16;6301442;20;3510770;-68
2022/10/26 10:12:20;;;;;;;;;12.67;11.33;;;;;19.52;80.69;100275.19;6308773;20;2794006;-69
2022/10/26 10:14:59;;;;;;;;;14.00;12.00;;;;;19.49;81.47;100272.72;6303866;20;3509652;-67
2022/10/26 10:17:28;;;;;;;;;9.67;9.00;;;;;19.67;78.82;100275.69;6270674;20;2762942;-67
2022/10/26 10:20:11;;;;;;;;;8.20;5.20;;;;;19.40;78.96;100279.84;6327813;20;2738821;-67
2022/10/26 10:23:01;;;;;;;;;6.67;6.00;;;;;19.52;78.12;100284.19;6304374;20;2736961;-67
2022/10/26 10:25:36;;;;;;;;;5.20;5.20;;;;;19.79;77.35;100274.56;6330366;20;2748274;-68
2022/10/26 10:28:26;;;;;;;;;4.60;4.60;;;;;19.00;76.40;100269.75;6301495;20;2748218;-66
2022/10/26 10:31:21;;;;;;;;;4.00;4.00;;;;;19.41;76.55;100273.41;6298290;20;2756627;-67
2022/10/26 10:33:51;;;;;;;;;4.00;3.00;;;;;19.26;76.64;100269.31;6275437;20;2744013;-68
2022/10/26 10:36:28;;;;;;;;;3.20;3.20;;;;;19.26;76.08;100266.59;6328802;20;2745133;-67
2022/10/26 10:38:58;;;;;;;;;4.80;4.20;;;;;19.06;76.88;100271.97;6327489;20;2752420;-66
2022/10/26 10:41:38;;;;;;;;;3.00;3.00;;;;;19.20;77.23;100269.88;6303237;20;2748208;-67
2022/10/26 10:44:30;;;;;;;;;9.00;6.60;;;;;18.95;77.35;100276.59;6332169;20;2753498;-65
2022/10/26 10:47:06;;;;;;;;;4.33;4.33;;;;;18.75;78.19;100270.19;6272884;20;2754639;-66
2022/10/26 10:49:35;;;;;;;;;5.80;4.80;;;;;18.61;78.65;100269.47;6330888;20;2741981;-67
2022/10/26 10:52:07;;;;;;;;;5.00;4.00;;;;;18.80;77.59;100274.22;6330656;20;2746125;-66
2022/10/26 10:54:40;;;;;;;;;6.00;4.33;;;;;18.35;79.12;100273.53;6273764;20;2747141;-68
2022/10/26 10:58:01;;;;;;;;;7.60;5.00;;;;;18.57;79.10;100273.44;6334362;20;2750303;-68
2022/10/26 11:00:36;;;;;;;;;3.80;3.80;;;;;18.53;79.71;100265.69;6295003;20;2741023;-69
2022/10/26 11:03:38;;;;;;;;;5.20;3.40;;;;;18.71;77.10;100271.41;6331107;20;2740941;-68
2022/10/26 11:06:22;;;;;;;;;4.40;4.00;;;;;19.06;77.23;100269.25;6299153;20;2754476;-67
2022/10/26 11:09:14;;;;;;;;;4.00;2.40;;;;;19.19;75.49;100269.00;6296130;20;2743039;-68
2022/10/26 11:12:01;;;;;;;;;3.40;3.40;;;;;19.04;76.06;100264.94;6329653;20;2746244;-67
2022/10/26 11:14:56;;;;;;;;;4.67;4.67;;;;;19.13;74.66;100264.09;6308959;20;2750243;-67
2022/10/26 11:17:35;;;;;;;;;3.33;3.33;;;;;19.12;76.08;100267.84;6306155;20;2744074;-68
2022/10/26 11:20:20;;;;;;;;;5.80;4.60;;;;;18.97;76.44;100266.44;6330612;20;2747141;-68
2022/10/26 11:23:04;;;;;;;;;6.20;4.80;;;;;19.24;75.90;100277.63;6328488;20;2745191;-68
2022/10/26 11:26:16;;;;;;;;;4.40;4.00;;;;;19.11;76.67;100271.53;6328848;20;2752435;-68
2022/10/26 11:29:20;;;;;;;;;7.00;5.00;;;;;19.45;74.88;100268.53;6297377;20;2746190;-67
2022/10/26 11:32:12;;;;;;;;;5.00;5.00;;;;;19.25;76.92;100268.47;6275317;20;2748219;-68
2022/10/26 11:35:20;;;;;;;;;5.40;4.40;;;;;19.44;75.37;100267.69;6332113;20;2745111;-68
2022/10/26 11:38:21;;;;;;;;;6.33;4.33;;;;;19.69;73.51;100260.06;6270568;20;2756631;-68
2022/10/26 11:41:37;;;;;;;;;5.40;4.00;;;;;19.32;74.61;100266.06;6329563;20;2754409;-68
2022/10/26 11:44:14;;;;;;;;;5.40;5.40;;;;;19.30;74.61;100257.19;6298288;20;2748208;-69
2022/10/26 11:47:40;;;;;;;;;7.00;5.33;;;;;19.32;74.26;100268.78;6305303;20;2745100;-67
2022/10/26 11:50:24;;;;;;;;;5.00;5.00;;;;;19.49;73.18;100265.41;6329372;20;2737891;-66